createdAt,value
2022-11-01T00:00:30.022Z,14.50
2022-11-01T00:02:31.792Z,14.45
2022-11-01T00:04:33.406Z,14.33
2022-11-01T00:06:36.135Z,14.34
2022-11-01T00:08:37.839Z,14.30
2022-11-01T00:10:39.427Z,14.34
2022-11-01T00:12:41.463Z,14.37
2022-11-01T00:14:43.094Z,14.38
2022-11-01T00:16:44.735Z,14.39
2022-11-01T00:18:46.973Z,14.45
2022-11-01T00:20:48.648Z,14.44
2022-11-01T00:22:50.296Z,14.43
2022-11-01T00:24:54.789Z,14.44
2022-11-01T00:26:56.777Z,14.45
2022-11-01T00:28:58.385Z,14.47
2022-11-01T00:31:00.375Z,14.49
2022-11-01T00:33:01.975Z,14.54
2022-11-01T00:35:03.777Z,14.53
2022-11-01T00:37:05.333Z,14.53
2022-11-01T00:39:07.950Z,14.49
2022-11-01T00:41:09.558Z,14.49
2022-11-01T00:43:12.096Z,14.47
2022-11-01T00:45:13.941Z,14.41
2022-11-01T00:47:15.528Z,14.38
2022-11-01T00:49:17.498Z,14.34
2022-11-01T00:51:19.116Z,14.27
2022-11-01T00:53:21.005Z,14.20
2022-11-01T00:55:22.864Z,14.15
2022-11-01T00:57:24.527Z,14.07
2022-11-01T00:59:26.119Z,13.93
2022-11-01T01:01:27.845Z,13.57
2022-11-01T01:03:29.578Z,13.37
2022-11-01T01:05:31.922Z,13.37
2022-11-01T01:07:34.179Z,13.41
2022-11-01T01:09:35.970Z,13.38
2022-11-01T01:11:37.625Z,13.27
2022-11-01T01:13:39.333Z,13.27
2022-11-01T01:15:41.626Z,13.31
2022-11-01T01:17:43.232Z,13.29
2022-11-01T01:19:45.108Z,13.30
2022-11-01T01:21:46.764Z,13.31
2022-11-01T01:23:49.022Z,13.20
2022-11-01T01:25:50.646Z,13.16
2022-11-01T01:27:52.281Z,13.19
2022-11-01T01:29:53.865Z,13.21
2022-11-01T01:31:55.551Z,13.30
2022-11-01T01:34:00.212Z,13.36
2022-11-01T01:36:05.741Z,13.41
2022-11-01T01:38:07.846Z,13.45
2022-11-01T01:40:09.856Z,13.48
2022-11-01T01:42:15.666Z,13.51
2022-11-01T01:44:42.223Z,13.54
2022-11-01T01:46:43.845Z,13.59
2022-11-01T01:48:48.577Z,13.61
2022-11-01T01:51:15.537Z,13.62
2022-11-01T01:53:33.721Z,13.58
2022-11-01T01:55:57.247Z,13.51
2022-11-01T01:57:59.475Z,13.26
2022-11-01T02:00:01.507Z,12.72
2022-11-01T02:02:03.437Z,12.53
2022-11-01T02:04:08.763Z,12.63
2022-11-01T02:06:12.800Z,12.77
2022-11-01T02:08:14.778Z,12.90
2022-11-01T02:10:17.000Z,13.00
2022-11-01T02:12:19.042Z,13.06
2022-11-01T02:14:21.617Z,13.13
2022-11-01T02:16:50.545Z,13.15
2022-11-01T02:19:10.417Z,13.18
2022-11-01T02:21:30.553Z,13.13
2022-11-01T02:24:07.254Z,12.93
2022-11-01T02:26:21.311Z,12.83
2022-11-01T02:28:44.057Z,12.69
2022-11-01T02:31:03.955Z,12.56
2022-11-01T02:33:05.868Z,12.52
2022-11-01T02:35:25.647Z,12.48
2022-11-01T02:37:35.373Z,12.49
2022-11-01T02:39:41.174Z,12.50
2022-11-01T02:41:50.420Z,12.37
2022-11-01T02:44:07.966Z,12.23
2022-11-01T02:46:28.756Z,12.09
2022-11-01T02:48:30.353Z,12.13
2022-11-01T02:50:44.088Z,12.06
2022-11-01T02:52:46.274Z,12.14
2022-11-01T02:54:54.786Z,12.26
2022-11-01T02:56:59.150Z,12.37
2022-11-01T02:59:01.384Z,12.47
2022-11-01T03:01:03.024Z,12.58
2022-11-01T03:03:15.859Z,12.66
2022-11-01T03:05:25.500Z,12.77
2022-11-01T03:07:27.082Z,12.87
2022-11-01T03:09:28.753Z,12.93
2022-11-01T03:11:57.223Z,12.98
2022-11-01T03:14:23.416Z,12.99
2022-11-01T03:16:32.677Z,13.03
2022-11-01T03:18:36.755Z,13.05
2022-11-01T03:20:48.338Z,13.10
2022-11-01T03:22:56.791Z,13.09
2022-11-01T03:25:03.760Z,13.11
2022-11-01T03:27:10.551Z,13.09
2022-11-01T03:29:12.232Z,13.04
2022-11-01T03:31:16.834Z,13.01
2022-11-01T03:33:18.964Z,12.95
2022-11-01T03:35:26.835Z,12.93
2022-11-01T03:37:29.282Z,12.91
2022-11-01T03:39:43.983Z,12.90
2022-11-01T03:41:49.701Z,12.90
2022-11-01T03:43:52.087Z,12.95
2022-11-01T03:45:54.303Z,12.97
2022-11-01T03:47:56.933Z,12.94
2022-11-01T03:50:13.391Z,12.91
2022-11-01T03:52:15.007Z,12.85
2022-11-01T03:54:16.695Z,12.48
2022-11-01T03:56:18.263Z,12.06
2022-11-01T03:58:20.038Z,11.82
2022-11-01T04:00:31.400Z,11.74
2022-11-01T04:02:32.981Z,11.52
2022-11-01T04:04:34.573Z,11.52
2022-11-01T04:06:36.241Z,11.61
2022-11-01T04:08:38.465Z,11.65
2022-11-01T04:10:40.107Z,11.56
2022-11-01T04:12:45.302Z,11.64
2022-11-01T04:15:05.192Z,11.47
2022-11-01T04:17:27.336Z,11.35
2022-11-01T04:19:47.581Z,11.06
2022-11-01T04:21:49.138Z,11.07
2022-11-01T04:23:50.993Z,11.14
2022-11-01T04:25:52.560Z,11.27
2022-11-01T04:27:56.578Z,11.38
2022-11-01T04:29:58.301Z,11.46
2022-11-01T04:31:59.956Z,11.55
2022-11-01T04:34:02.526Z,11.67
2022-11-01T04:36:05.771Z,11.82
2022-11-01T04:38:07.531Z,11.94
2022-11-01T04:40:09.744Z,12.05
2022-11-01T04:42:11.379Z,12.15
2022-11-01T04:44:13.006Z,12.24
2022-11-01T04:46:14.792Z,12.29
2022-11-01T04:48:17.105Z,12.32
2022-11-01T04:50:20.274Z,12.33
2022-11-01T04:52:22.164Z,12.32
2022-11-01T04:54:23.907Z,12.36
2022-11-01T04:56:25.541Z,12.35
2022-11-01T04:58:27.136Z,12.40
2022-11-01T05:00:28.851Z,12.39
2022-11-01T05:02:31.255Z,12.34
2022-11-01T05:04:32.806Z,12.33
2022-11-01T05:06:35.619Z,12.32
2022-11-01T05:08:37.295Z,12.32
2022-11-01T05:10:41.151Z,12.34
2022-11-01T05:12:42.857Z,12.40
2022-11-01T05:14:44.425Z,12.44
2022-11-01T05:16:46.041Z,12.42
2022-11-01T05:18:48.064Z,12.42
2022-11-01T05:20:49.752Z,12.44
2022-11-01T05:22:51.403Z,12.43
2022-11-01T05:24:53.654Z,12.47
2022-11-01T05:26:55.365Z,12.49
2022-11-01T05:28:56.939Z,12.53
2022-11-01T05:30:58.658Z,12.56
2022-11-01T05:33:01.498Z,12.56
2022-11-01T05:35:03.153Z,12.61
2022-11-01T05:37:04.954Z,12.63
2022-11-01T05:39:06.560Z,12.69
2022-11-01T05:41:08.224Z,12.76
2022-11-01T05:43:09.918Z,12.82
2022-11-01T05:45:11.632Z,12.89
2022-11-01T05:47:17.074Z,12.88
2022-11-01T05:49:19.190Z,12.88
2022-11-01T05:51:21.006Z,12.89
2022-11-01T05:53:22.548Z,12.98
2022-11-01T05:55:24.147Z,13.02
2022-11-01T05:57:30.920Z,13.02
2022-11-01T05:59:34.771Z,13.10
2022-11-01T06:01:36.421Z,13.12
2022-11-01T06:03:38.161Z,13.20
2022-11-01T06:05:39.868Z,13.28
2022-11-01T06:07:41.463Z,13.33
2022-11-01T06:09:43.075Z,13.38
2022-11-01T06:11:44.632Z,13.46
2022-11-01T06:13:46.167Z,13.56
2022-11-01T06:15:47.972Z,13.65
2022-11-01T06:17:56.347Z,13.70
2022-11-01T06:19:58.374Z,13.72
2022-11-01T06:22:00.017Z,13.79
2022-11-01T06:24:01.649Z,13.85
2022-11-01T06:26:04.353Z,13.89
2022-11-01T06:28:06.094Z,13.90
2022-11-01T06:30:08.515Z,13.91
2022-11-01T06:32:10.140Z,13.88
2022-11-01T06:34:11.742Z,13.90
2022-11-01T06:36:13.303Z,13.92
2022-11-01T06:38:14.865Z,13.96
2022-11-01T06:40:16.826Z,14.02
2022-11-01T06:42:18.488Z,14.10
2022-11-01T06:44:20.065Z,14.17
2022-11-01T06:46:21.661Z,14.24
2022-11-01T06:48:23.308Z,14.29
2022-11-01T06:50:25.364Z,14.31
2022-11-01T06:52:27.030Z,14.36
2022-11-01T06:54:28.717Z,14.33
2022-11-01T06:56:30.269Z,14.30
2022-11-01T06:58:31.942Z,14.24
2022-11-01T07:00:33.683Z,14.29
2022-11-01T07:02:35.986Z,14.28
2022-11-01T07:04:38.870Z,14.27
2022-11-01T07:06:40.555Z,14.36
2022-11-01T07:08:42.144Z,14.41
2022-11-01T07:10:44.149Z,14.43
2022-11-01T07:12:45.726Z,14.51
2022-11-01T07:14:47.351Z,14.62
2022-11-01T07:16:49.087Z,14.70
2022-11-01T07:18:51.660Z,14.80
2022-11-01T07:20:53.218Z,14.85
2022-11-01T07:23:07.147Z,14.91
2022-11-01T07:25:10.455Z,15.00
2022-11-01T07:27:14.321Z,15.11
2022-11-01T07:29:20.686Z,15.25
2022-11-01T07:31:22.539Z,15.20
2022-11-01T07:33:24.129Z,15.07
2022-11-01T07:35:26.501Z,15.07
2022-11-01T07:37:31.011Z,15.11
2022-11-01T07:39:32.627Z,15.24
2022-11-01T07:41:34.176Z,15.31
2022-11-01T07:43:36.996Z,15.37
2022-11-01T07:45:38.619Z,15.41
2022-11-01T07:47:40.240Z,15.44
2022-11-01T07:49:41.856Z,15.54
2022-11-01T07:51:43.433Z,15.69
2022-11-01T07:53:45.028Z,15.74
2022-11-01T07:55:46.859Z,15.83
2022-11-01T07:57:48.427Z,15.91
2022-11-01T07:59:50.003Z,15.73
2022-11-01T08:01:51.839Z,15.72
2022-11-01T08:03:53.503Z,15.87
2022-11-01T08:05:55.973Z,16.03
2022-11-01T08:07:57.825Z,16.16
2022-11-01T08:09:59.491Z,16.26
2022-11-01T08:12:01.973Z,16.39
2022-11-01T08:14:05.188Z,16.52
2022-11-01T08:16:07.837Z,16.59
2022-11-01T08:18:09.771Z,16.65
2022-11-01T08:20:11.760Z,16.72
2022-11-01T08:22:13.378Z,16.77
2022-11-01T08:24:15.118Z,16.93
2022-11-01T08:26:16.748Z,17.01
2022-11-01T08:28:20.219Z,16.96
2022-11-01T08:30:23.000Z,17.01
2022-11-01T08:32:24.698Z,17.08
2022-11-01T08:34:26.468Z,17.05
2022-11-01T08:36:28.115Z,16.95
2022-11-01T08:38:29.678Z,16.94
2022-11-01T08:40:32.648Z,17.06
2022-11-01T08:42:34.229Z,17.05
2022-11-01T08:44:35.814Z,17.17
2022-11-01T08:46:37.428Z,17.16
2022-11-01T08:48:39.172Z,17.08
2022-11-01T08:50:41.014Z,17.14
2022-11-01T08:52:43.013Z,17.02
2022-11-01T08:54:44.856Z,17.12
2022-11-01T08:56:46.478Z,17.04
2022-11-01T08:58:52.091Z,17.07
2022-11-01T09:00:53.843Z,17.20
2022-11-01T09:02:55.583Z,17.50
2022-11-01T09:04:57.143Z,17.64
2022-11-01T09:06:58.807Z,17.80
2022-11-01T09:09:01.081Z,17.87
2022-11-01T09:11:02.670Z,17.84
2022-11-01T09:13:04.850Z,17.71
2022-11-01T09:15:07.047Z,17.69
2022-11-01T09:17:08.840Z,17.93
2022-11-01T09:19:10.665Z,18.15
2022-11-01T09:21:12.271Z,18.46
2022-11-01T09:23:13.869Z,18.70
2022-11-01T09:25:15.565Z,18.59
2022-11-01T09:27:17.184Z,18.39
2022-11-01T09:29:19.029Z,18.41
2022-11-01T09:31:21.594Z,18.42
2022-11-01T09:33:24.367Z,18.59
2022-11-01T09:35:26.027Z,18.90
2022-11-01T09:37:27.810Z,19.12
2022-11-01T09:39:29.389Z,19.22
2022-11-01T09:41:47.484Z,19.45
2022-11-01T09:43:55.104Z,19.65
2022-11-01T09:45:59.275Z,19.69
2022-11-01T09:48:02.415Z,19.84
2022-11-01T09:50:05.778Z,19.94
2022-11-01T09:52:07.762Z,19.99
2022-11-01T09:54:10.481Z,20.13
2022-11-01T09:56:19.205Z,20.28
2022-11-01T09:58:48.736Z,20.40
2022-11-01T10:01:15.598Z,20.51
2022-11-01T10:03:33.788Z,20.40
2022-11-01T10:05:48.803Z,20.41
2022-11-01T10:08:09.868Z,20.28
2022-11-01T10:10:33.987Z,20.35
2022-11-01T10:12:44.282Z,20.49
2022-11-01T10:15:01.162Z,20.65
2022-11-01T10:17:14.683Z,20.85
2022-11-01T10:19:21.946Z,20.99
2022-11-01T10:21:27.208Z,21.12
2022-11-01T10:23:53.939Z,21.19
2022-11-01T10:25:55.379Z,21.21
2022-11-01T10:28:21.130Z,21.22
2022-11-01T10:30:22.995Z,21.24
2022-11-01T10:32:58.149Z,21.27
2022-11-01T10:35:04.640Z,21.38
2022-11-01T10:37:24.094Z,21.46
2022-11-01T10:39:54.255Z,21.55
2022-11-01T10:41:58.640Z,21.64
2022-11-01T10:44:07.206Z,21.74
2022-11-01T10:46:18.018Z,21.78
2022-11-01T10:48:45.897Z,21.79
2022-11-01T10:50:47.816Z,21.60
2022-11-01T10:52:52.244Z,21.32
2022-11-01T10:54:56.183Z,21.27
2022-11-01T10:57:02.967Z,21.07
2022-11-01T10:59:08.369Z,21.31
2022-11-01T11:01:17.166Z,21.46
2022-11-01T11:03:22.769Z,21.64
2022-11-01T11:05:25.931Z,21.76
2022-11-01T11:07:31.297Z,21.84
2022-11-01T11:09:34.950Z,21.89
2022-11-01T11:11:44.301Z,21.98
2022-11-01T11:13:49.323Z,22.11
2022-11-01T11:16:00.512Z,22.17
2022-11-01T11:18:02.743Z,22.19
2022-11-01T11:20:07.356Z,22.25
2022-11-01T11:22:09.285Z,22.27
2022-11-01T11:24:19.736Z,22.05
2022-11-01T11:26:21.844Z,21.79
2022-11-01T11:28:31.463Z,21.66
2022-11-01T11:30:35.317Z,21.55
2022-11-01T11:32:38.953Z,21.64
2022-11-01T11:34:41.280Z,21.85
2022-11-01T11:36:44.480Z,22.04
2022-11-01T11:38:47.806Z,22.15
2022-11-01T11:40:49.526Z,22.26
2022-11-01T11:42:53.772Z,22.35
2022-11-01T11:45:09.504Z,22.23
2022-11-01T11:47:20.851Z,22.15
2022-11-01T11:49:26.802Z,22.14
2022-11-01T11:51:29.867Z,22.15
2022-11-01T11:53:33.472Z,22.19
2022-11-01T11:55:46.160Z,22.27
2022-11-01T11:57:52.745Z,22.42
2022-11-01T12:00:05.329Z,22.42
2022-11-01T12:02:16.094Z,22.46
2022-11-01T12:04:19.087Z,22.52
2022-11-01T12:06:26.088Z,22.56
2022-11-01T12:08:48.596Z,22.59
2022-11-01T12:10:57.557Z,22.60
2022-11-01T12:12:59.550Z,22.60
2022-11-01T12:15:03.803Z,22.64
2022-11-01T12:17:22.864Z,22.60
2022-11-01T12:19:31.805Z,22.62
2022-11-01T12:21:43.147Z,22.58
2022-11-01T12:23:45.529Z,22.55
2022-11-01T12:25:47.348Z,22.60
2022-11-01T12:27:55.431Z,22.65
2022-11-01T12:30:05.150Z,22.69
2022-11-01T12:32:12.599Z,22.72
2022-11-01T12:34:28.201Z,22.75
2022-11-01T12:36:43.817Z,22.79
2022-11-01T12:38:51.608Z,22.83
2022-11-01T12:40:54.687Z,22.86
2022-11-01T12:43:03.112Z,22.86
2022-11-01T12:45:16.415Z,22.87
2022-11-01T12:47:25.126Z,22.88
2022-11-01T12:49:29.305Z,22.89
2022-11-01T12:51:38.354Z,22.91
2022-11-01T12:53:47.376Z,22.90
2022-11-01T12:55:48.978Z,22.89
2022-11-01T12:57:50.631Z,22.89
2022-11-01T12:59:52.347Z,22.88
2022-11-01T13:01:59.714Z,22.92
2022-11-01T13:04:04.425Z,22.90
2022-11-01T13:06:15.442Z,22.87
2022-11-01T13:08:26.564Z,22.89
2022-11-01T13:10:33.440Z,22.93
2022-11-01T13:12:41.074Z,22.95
2022-11-01T13:14:58.231Z,22.90
2022-11-01T13:17:09.262Z,22.93
2022-11-01T13:19:19.037Z,22.91
2022-11-01T13:21:38.941Z,22.89
2022-11-01T13:23:49.155Z,22.90
2022-11-01T13:26:05.990Z,22.89
2022-11-01T13:28:18.764Z,22.89
2022-11-01T13:30:21.139Z,22.90
2022-11-01T13:32:44.679Z,22.92
2022-11-01T13:35:07.232Z,22.85
2022-11-01T13:37:12.199Z,22.83
2022-11-01T13:39:37.724Z,22.83
2022-11-01T13:41:41.020Z,22.83
2022-11-01T13:43:55.090Z,22.83
2022-11-01T13:46:02.581Z,22.84
2022-11-01T13:48:32.040Z,22.80
2022-11-01T13:50:48.937Z,22.83
2022-11-01T13:53:00.559Z,22.85
2022-11-01T13:55:27.163Z,22.88
2022-11-01T13:57:29.138Z,22.88
2022-11-01T13:59:44.894Z,22.88
2022-11-01T14:01:47.020Z,22.84
2022-11-01T14:03:50.014Z,22.86
2022-11-01T14:06:06.958Z,22.87
2022-11-01T14:08:28.301Z,22.89
2022-11-01T14:10:30.528Z,22.91
2022-11-01T14:12:44.878Z,22.94
2022-11-01T14:14:50.931Z,22.94
2022-11-01T14:16:53.392Z,22.96
2022-11-01T14:19:04.078Z,22.98
2022-11-01T14:21:22.302Z,22.95
2022-11-01T14:23:29.912Z,22.93
2022-11-01T14:25:32.810Z,22.89
2022-11-01T14:27:40.626Z,22.87
2022-11-01T14:29:42.719Z,22.84
2022-11-01T14:31:46.002Z,22.81
2022-11-01T14:33:48.556Z,22.78
2022-11-01T14:35:56.295Z,22.73
2022-11-01T14:38:03.328Z,22.69
2022-11-01T14:40:27.003Z,22.61
2022-11-01T14:42:35.406Z,22.58
2022-11-01T14:44:39.931Z,22.52
2022-11-01T14:46:46.662Z,22.45
2022-11-01T14:49:29.891Z,22.38
2022-11-01T14:51:48.598Z,22.27
2022-11-01T14:53:55.182Z,22.17
2022-11-01T14:56:17.658Z,22.07
2022-11-01T14:58:22.315Z,21.96
2022-11-01T15:00:29.730Z,21.84
2022-11-01T15:02:31.841Z,21.76
2022-11-01T15:04:42.284Z,21.64
2022-11-01T15:06:44.153Z,21.53
2022-11-01T15:08:45.737Z,21.43
2022-11-01T15:10:47.715Z,21.33
2022-11-01T15:13:07.559Z,21.21
2022-11-01T15:15:19.695Z,21.14
2022-11-01T15:17:27.114Z,21.05
2022-11-01T15:19:32.972Z,20.98
2022-11-01T15:21:35.191Z,20.88
2022-11-01T15:23:38.143Z,20.80
2022-11-01T15:25:40.796Z,20.74
2022-11-01T15:27:44.378Z,20.66
2022-11-01T15:29:45.893Z,20.59
2022-11-01T15:31:53.356Z,20.52
2022-11-01T15:34:02.451Z,20.44
2022-11-01T15:36:18.789Z,20.34
2022-11-01T15:38:21.226Z,20.28
2022-11-01T15:40:36.999Z,20.22
2022-11-01T15:42:38.848Z,20.17
2022-11-01T15:44:45.204Z,20.10
2022-11-01T15:46:48.906Z,20.04
2022-11-01T15:48:50.961Z,19.96
2022-11-01T15:50:57.832Z,19.92
2022-11-01T15:53:04.349Z,19.88
2022-11-01T15:55:25.128Z,19.82
2022-11-01T15:57:43.296Z,19.76
2022-11-01T15:59:53.757Z,19.69
2022-11-01T16:01:57.560Z,19.68
2022-11-01T16:04:03.277Z,19.64
2022-11-01T16:06:10.977Z,19.62
2022-11-01T16:08:22.870Z,19.57
2022-11-01T16:10:29.897Z,19.54
2022-11-01T16:12:34.472Z,19.51
2022-11-01T16:14:37.957Z,19.50
2022-11-01T16:16:59.579Z,19.44
2022-11-01T16:19:01.500Z,19.41
2022-11-01T16:21:30.044Z,19.38
2022-11-01T16:23:32.586Z,19.36
2022-11-01T16:25:37.596Z,19.33
2022-11-01T16:28:10.206Z,19.29
2022-11-01T16:30:34.499Z,19.22
2022-11-01T16:32:36.338Z,19.19
2022-11-01T16:34:37.897Z,19.14
2022-11-01T16:36:41.751Z,19.11
2022-11-01T16:38:44.363Z,19.08
2022-11-01T16:40:45.964Z,19.05
2022-11-01T16:42:48.727Z,19.00
2022-11-01T16:44:54.918Z,18.96
2022-11-01T16:46:56.600Z,18.93
2022-11-01T16:49:00.801Z,18.92
2022-11-01T16:51:03.763Z,18.87
2022-11-01T16:53:09.511Z,18.84
2022-11-01T16:55:17.112Z,18.83
2022-11-01T16:57:24.296Z,18.79
2022-11-01T16:59:35.686Z,18.77
2022-11-01T17:01:38.111Z,18.76
2022-11-01T17:03:41.117Z,18.73
2022-11-01T17:05:42.964Z,18.73
2022-11-01T17:07:45.188Z,18.71
2022-11-01T17:09:46.773Z,18.69
2022-11-01T17:11:51.696Z,18.69
2022-11-01T17:13:53.598Z,18.66
2022-11-01T17:15:55.223Z,18.62
2022-11-01T17:17:56.893Z,18.59
2022-11-01T17:20:00.951Z,18.57
2022-11-01T17:22:08.868Z,18.56
2022-11-01T17:24:10.767Z,18.54
2022-11-01T17:26:15.783Z,18.52
2022-11-01T17:28:21.649Z,18.49
2022-11-01T17:30:23.424Z,18.47
2022-11-01T17:32:24.993Z,18.45
2022-11-01T17:34:28.780Z,18.42
2022-11-01T17:36:30.835Z,18.41
2022-11-01T17:38:34.716Z,18.39
2022-11-01T17:40:36.697Z,18.36
2022-11-01T17:42:38.551Z,18.34
2022-11-01T17:44:40.174Z,18.32
2022-11-01T17:46:42.893Z,18.31
2022-11-01T17:48:44.605Z,18.29
2022-11-01T17:50:46.765Z,18.29
2022-11-01T17:52:48.601Z,18.27
2022-11-01T17:54:50.214Z,18.23
2022-11-01T17:56:51.782Z,18.15
2022-11-01T17:58:53.868Z,18.05
2022-11-01T18:00:55.753Z,17.91
2022-11-01T18:02:57.471Z,17.82
2022-11-01T18:04:59.087Z,17.72
2022-11-01T18:07:03.315Z,17.60
2022-11-01T18:09:15.792Z,17.49
2022-11-01T18:11:39.094Z,17.39
2022-11-01T18:13:49.393Z,17.40
2022-11-01T18:15:59.805Z,17.43
2022-11-01T18:18:24.777Z,17.44
2022-11-01T18:20:31.671Z,17.42
2022-11-01T18:22:55.984Z,17.40
2022-11-01T18:25:16.735Z,17.11
2022-11-01T18:27:33.413Z,17.05
2022-11-01T18:29:39.966Z,17.06
2022-11-01T18:31:46.226Z,17.13
2022-11-01T18:34:23.305Z,17.22
2022-11-01T18:36:27.447Z,17.29
2022-11-01T18:38:43.611Z,17.31
2022-11-01T18:40:51.191Z,17.33
2022-11-01T18:42:53.984Z,17.38
2022-11-01T18:44:57.983Z,17.36
2022-11-01T18:47:07.854Z,17.36
2022-11-01T18:49:11.130Z,17.28
2022-11-01T18:51:21.598Z,17.25
2022-11-01T18:53:24.234Z,17.25
2022-11-01T18:55:25.889Z,17.30
2022-11-01T18:57:29.121Z,17.34
2022-11-01T18:59:34.099Z,17.37
2022-11-01T19:01:37.697Z,17.36
2022-11-01T19:03:39.350Z,17.37
2022-11-01T19:05:41.949Z,17.36
2022-11-01T19:08:09.699Z,17.35
2022-11-01T19:10:15.644Z,17.33
2022-11-01T19:12:29.627Z,17.26
2022-11-01T19:14:32.810Z,17.11
2022-11-01T19:16:34.535Z,16.93
2022-11-01T19:18:40.705Z,16.72
2022-11-01T19:20:50.056Z,16.54
2022-11-01T19:22:55.240Z,16.52
2022-11-01T19:24:56.823Z,16.57
2022-11-01T19:26:59.094Z,16.65
2022-11-01T19:29:00.970Z,16.70
2022-11-01T19:31:33.219Z,16.74
2022-11-01T19:33:37.751Z,16.79
2022-11-01T19:35:39.345Z,16.81
2022-11-01T19:37:42.263Z,16.78
2022-11-01T19:39:43.936Z,16.77
2022-11-01T19:41:45.670Z,16.78
2022-11-01T19:43:47.216Z,16.77
2022-11-01T19:45:56.640Z,16.78
2022-11-01T19:47:58.598Z,16.73
2022-11-01T19:50:00.367Z,16.70
2022-11-01T19:52:07.758Z,16.66
2022-11-01T19:54:11.520Z,16.59
2022-11-01T19:56:17.378Z,16.57
2022-11-01T19:58:22.747Z,16.48
2022-11-01T20:00:25.463Z,16.42
2022-11-01T20:02:27.180Z,16.32
2022-11-01T20:04:31.314Z,16.32
2022-11-01T20:06:37.345Z,16.31
2022-11-01T20:08:40.568Z,16.35
2022-11-01T20:10:42.195Z,16.33
2022-11-01T20:12:44.899Z,16.34
2022-11-01T20:14:46.681Z,16.31
2022-11-01T20:16:48.835Z,16.31
2022-11-01T20:18:50.414Z,16.32
2022-11-01T20:20:54.006Z,16.32
2022-11-01T20:23:20.213Z,16.28
2022-11-01T20:25:17.191Z,16.29
2022-11-01T20:27:18.941Z,16.28
2022-11-01T20:29:20.771Z,16.27
2022-11-01T20:31:22.396Z,16.21
2022-11-01T20:33:25.806Z,16.21
2022-11-01T20:35:27.377Z,16.19
2022-11-01T20:37:29.385Z,16.14
2022-11-01T20:39:31.044Z,16.06
2022-11-01T20:41:32.656Z,15.95
2022-11-01T20:43:34.404Z,15.94
2022-11-01T20:45:36.115Z,15.95
2022-11-01T20:47:40.392Z,15.96
2022-11-01T20:49:44.368Z,15.97
2022-11-01T20:51:46.115Z,15.96
2022-11-01T20:53:47.680Z,15.84
2022-11-01T20:55:49.372Z,15.70
2022-11-01T20:57:51.547Z,15.57
2022-11-01T20:59:53.133Z,15.53
2022-11-01T21:01:55.393Z,15.53
2022-11-01T21:03:57.576Z,15.56
2022-11-01T21:05:59.158Z,15.59
2022-11-01T21:08:11.178Z,15.59
2022-11-01T21:10:33.823Z,15.62
2022-11-01T21:12:44.629Z,15.64
2022-11-01T21:14:46.392Z,15.63
2022-11-01T21:16:48.261Z,15.63
2022-11-01T21:18:53.029Z,15.66
2022-11-01T21:20:54.719Z,15.66
2022-11-01T21:23:00.884Z,15.65
2022-11-01T21:25:02.860Z,15.60
2022-11-01T21:27:10.664Z,15.54
2022-11-01T21:29:28.373Z,15.53
2022-11-01T21:31:32.044Z,15.51
2022-11-01T21:33:36.568Z,15.52
2022-11-01T21:35:40.989Z,15.51
2022-11-01T21:37:42.743Z,15.51
2022-11-01T21:39:44.391Z,15.49
2022-11-01T21:41:57.931Z,15.44
2022-11-01T21:44:10.987Z,15.38
2022-11-01T21:46:21.008Z,15.34
2022-11-01T21:48:27.636Z,15.32
2022-11-01T21:50:29.329Z,15.28
2022-11-01T21:52:30.903Z,15.28
2022-11-01T21:54:34.262Z,15.29
2022-11-01T21:56:35.936Z,15.28
2022-11-01T21:58:37.537Z,15.27
2022-11-01T22:00:39.095Z,15.24
2022-11-01T22:02:40.789Z,15.26
2022-11-01T22:04:42.665Z,15.28
2022-11-01T22:06:44.733Z,15.36
2022-11-01T22:08:46.412Z,15.38
2022-11-01T22:10:48.011Z,15.40
2022-11-01T22:12:49.583Z,15.34
2022-11-01T22:14:51.252Z,15.29
2022-11-01T22:16:53.059Z,15.26
2022-11-01T22:18:54.604Z,15.22
2022-11-01T22:20:56.377Z,15.17
2022-11-01T22:22:57.990Z,15.15
2022-11-01T22:24:59.554Z,15.10
2022-11-01T22:27:02.252Z,15.10
2022-11-01T22:29:03.830Z,15.14
2022-11-01T22:31:06.159Z,15.14
2022-11-01T22:33:09.192Z,15.15
2022-11-01T22:35:10.754Z,15.16
2022-11-01T22:37:13.148Z,15.10
2022-11-01T22:39:21.308Z,15.05
2022-11-01T22:41:29.883Z,15.04
2022-11-01T22:43:35.024Z,15.04
2022-11-01T22:45:36.958Z,14.99
2022-11-01T22:47:39.434Z,14.97
2022-11-01T22:49:42.206Z,14.92
2022-11-01T22:51:46.235Z,14.93
2022-11-01T22:53:48.110Z,14.83
2022-11-01T22:55:51.670Z,14.86
2022-11-01T22:58:15.982Z,14.89
2022-11-01T23:00:44.031Z,14.87
2022-11-01T23:02:45.918Z,14.87
2022-11-01T23:04:48.018Z,14.83
2022-11-01T23:06:50.829Z,14.80
2022-11-01T23:08:53.638Z,14.81
2022-11-01T23:10:57.440Z,14.80
2022-11-01T23:13:29.824Z,14.79
2022-11-01T23:15:33.083Z,14.72
2022-11-01T23:17:36.757Z,14.56
2022-11-01T23:21:40.928Z,14.24
2022-11-01T23:23:47.186Z,14.24
2022-11-01T23:25:49.337Z,14.20
2022-11-01T23:27:50.955Z,14.20
2022-11-01T23:29:54.440Z,14.18
2022-11-01T23:31:56.095Z,14.17
2022-11-01T23:33:57.717Z,14.16
2022-11-01T23:36:00.983Z,14.13
2022-11-01T23:38:02.982Z,14.16
2022-11-01T23:40:13.120Z,14.14
2022-11-01T23:42:19.248Z,14.10
2022-11-01T23:44:28.068Z,14.02
2022-11-01T23:46:30.799Z,13.88
2022-11-01T23:48:32.683Z,13.84
2022-11-01T23:50:35.918Z,13.86
2022-11-01T23:52:46.310Z,13.77
2022-11-01T23:54:48.002Z,13.76
2022-11-01T23:56:49.716Z,13.72
2022-11-01T23:58:56.731Z,13.72
